createdAt,value
2023-01-22T04:31:32.867Z,0.50
2023-01-22T04:42:18.158Z,0.50
2023-01-22T04:52:56.003Z,0.50
2023-01-22T05:03:32.318Z,0.50
2023-01-22T05:14:10.501Z,0.60
2023-01-22T05:24:46.856Z,0.60
2023-01-22T05:35:23.929Z,0.60
2023-01-22T05:46:01.031Z,0.60
2023-01-22T05:57:12.224Z,0.60
2023-01-22T06:07:48.153Z,0.60
2023-01-22T06:18:25.194Z,0.60
2023-01-22T06:29:01.744Z,0.60
2023-01-22T06:39:38.006Z,0.60
2023-01-22T06:50:20.825Z,0.60
2023-01-22T07:01:04.479Z,0.60
2023-01-22T07:11:40.265Z,0.60
2023-01-22T07:22:15.898Z,0.70
2023-01-22T07:32:51.697Z,0.70
2023-01-22T07:43:27.463Z,0.70
2023-01-22T07:54:03.305Z,0.80
2023-01-22T08:04:40.743Z,0.80
2023-01-22T08:15:16.314Z,1.00
2023-01-22T08:25:52.003Z,1.30
2023-01-22T08:36:27.883Z,1.70
2023-01-22T08:47:03.323Z,1.60
2023-01-22T08:57:38.833Z,1.60
2023-01-22T09:08:14.748Z,2.10
2023-01-22T09:18:50.630Z,2.30
2023-01-22T09:29:26.394Z,3.30
2023-01-22T09:40:02.047Z,3.80
2023-01-22T09:50:40.028Z,3.70
2023-01-22T10:01:17.003Z,3.40
2023-01-22T10:11:55.032Z,3.30
2023-01-22T10:22:31.010Z,3.20
2023-01-22T10:33:07.251Z,3.40
2023-01-22T10:43:43.223Z,3.50
2023-01-22T10:54:32.026Z,2.90
2023-01-22T11:05:17.907Z,2.90
2023-01-22T11:16:12.426Z,2.90
2023-01-22T11:27:10.042Z,3.10
2023-01-22T11:38:01.487Z,3.20
2023-01-22T11:49:00.868Z,3.20
2023-01-22T12:00:04.678Z,3.00
2023-01-22T12:10:55.013Z,3.00
2023-01-22T12:21:57.680Z,3.10
2023-01-22T12:32:36.851Z,3.10
2023-01-22T12:43:13.096Z,3.10
2023-01-22T12:53:48.556Z,3.10
2023-01-22T13:04:29.536Z,3.30
2023-01-22T13:15:22.948Z,3.10
2023-01-22T13:25:59.802Z,3.00
2023-01-22T13:36:43.798Z,3.00
2023-01-22T13:47:33.314Z,3.10
2023-01-22T13:58:33.049Z,3.00
2023-01-22T14:09:28.731Z,3.10
2023-01-22T14:20:04.508Z,3.00
2023-01-22T14:30:40.283Z,2.90
2023-01-22T14:41:16.134Z,2.90
2023-01-22T14:51:53.615Z,2.80
2023-01-22T15:02:29.333Z,2.70
2023-01-22T15:13:04.640Z,2.70
2023-01-22T15:23:40.237Z,2.60
2023-01-22T15:34:15.936Z,2.50
2023-01-22T15:44:51.709Z,2.50
2023-01-22T15:55:27.583Z,2.40
2023-01-22T16:06:15.793Z,2.30
2023-01-22T16:16:51.324Z,2.20
2023-01-22T16:27:27.244Z,2.20
2023-01-22T16:38:02.912Z,2.10
2023-01-22T16:48:38.795Z,2.10
2023-01-22T16:59:14.866Z,2.00
2023-01-22T17:09:50.374Z,1.90
2023-01-22T17:20:26.158Z,2.00
2023-01-22T17:31:05.415Z,1.90
2023-01-22T17:41:41.567Z,1.80
2023-01-22T17:52:20.237Z,1.90
2023-01-22T18:02:55.935Z,1.90
2023-01-22T18:13:31.424Z,1.90
2023-01-22T18:24:09.008Z,1.90
2023-01-22T18:34:44.428Z,1.90
2023-01-22T18:45:20.368Z,1.80
2023-01-22T18:56:00.762Z,1.90
2023-01-22T19:06:38.556Z,1.80
2023-01-22T19:17:14.460Z,1.80
2023-01-22T19:27:50.243Z,1.80
2023-01-22T19:38:26.139Z,1.80
2023-01-22T19:49:01.965Z,1.80
2023-01-22T19:59:37.712Z,1.80
2023-01-22T20:10:15.353Z,1.70
2023-01-22T20:21:01.718Z,1.70
2023-01-22T20:31:37.266Z,1.70
2023-01-22T20:42:13.164Z,1.60
2023-01-22T20:52:49.424Z,1.70
2023-01-22T21:03:24.856Z,1.70
2023-01-22T21:14:01.876Z,1.70
2023-01-22T21:24:37.832Z,1.60
2023-01-22T21:35:13.739Z,1.60
2023-01-22T21:46:08.168Z,1.70
2023-01-22T21:56:44.087Z,1.60
2023-01-22T22:07:20.069Z,1.60
2023-01-22T22:17:55.839Z,1.60
2023-01-22T22:28:32.146Z,1.60
